Time;durP1;ratioP1;P1;durP2;ratioP2;P2;SDS_P1;SDS_P2;PMS_P1;PMS_P2;Temp;Humidity;BMP_temperature;BMP_pressure;BME280_temperature;BME280_humidity;BME280_pressure;Samples;Min_cycle;Max_cycle;Signal;HPM_P1;HPM_P2
2023/08/04 00:02:16;;;;;;;1.13;1.03;;;16.50;99.90;;;;;;6240168;23;20423;-79
2023/08/04 00:05:08;;;;;;;1.47;1.37;;;16.50;99.90;;;;;;6255011;23;20469;-78
2023/08/04 00:07:52;;;;;;;1.20;1.20;;;16.50;99.90;;;;;;6199238;23;20410;-78
2023/08/04 00:13:38;;;;;;;1.60;1.50;;;16.50;99.90;;;;;;6247995;23;20402;-78
2023/08/04 00:16:26;;;;;;;1.90;1.63;;;16.40;99.90;;;;;;6252837;23;20429;-77
2023/08/04 00:19:27;;;;;;;2.83;1.30;;;16.40;99.90;;;;;;6252278;23;20410;-78
2023/08/04 00:22:05;;;;;;;1.30;1.20;;;16.40;99.90;;;;;;6253801;23;20405;-77
2023/08/04 00:24:35;;;;;;;1.10;1.00;;;16.40;99.90;;;;;;6250723;23;20430;-79
2023/08/04 00:27:08;;;;;;;1.50;1.17;;;16.30;99.90;;;;;;6258946;23;20414;-76
2023/08/04 00:29:52;;;;;;;1.83;1.07;;;16.40;99.90;;;;;;6257380;23;20409;-76
2023/08/04 00:32:26;;;;;;;1.93;1.00;;;16.30;99.90;;;;;;6260513;23;20413;-77
2023/08/04 00:35:15;;;;;;;4.60;1.30;;;16.30;99.90;;;;;;6258498;23;20433;-77
2023/08/04 00:37:51;;;;;;;1.93;1.40;;;16.20;99.90;;;;;;6258246;23;20413;-78
2023/08/04 00:40:25;;;;;;;2.10;1.10;;;16.10;99.90;;;;;;6255278;23;20496;-78
2023/08/04 00:43:04;;;;;;;1.73;1.50;;;16.10;99.90;;;;;;6258643;23;20434;-76
2023/08/04 00:45:35;;;;;;;2.80;1.30;;;16.00;99.90;;;;;;6258969;23;20460;-78
2023/08/04 00:48:29;;;;;;;2.70;1.10;;;16.00;99.90;;;;;;6259526;23;20402;-78
2023/08/04 00:51:31;;;;;;;1.13;1.03;;;16.00;99.90;;;;;;6258716;23;20427;-80
2023/08/04 00:54:28;;;;;;;3.43;1.20;;;15.90;99.90;;;;;;6258466;23;20459;-79
2023/08/04 00:57:08;;;;;;;1.10;1.10;;;15.90;99.90;;;;;;6258347;23;20455;-77
2023/08/04 01:00:02;;;;;;;1.43;1.33;;;15.90;99.90;;;;;;6259308;23;20385;-77
2023/08/04 01:02:58;;;;;;;1.67;1.50;;;16.00;99.90;;;;;;6259654;23;20413;-77
2023/08/04 01:06:01;;;;;;;1.87;1.17;;;16.00;99.90;;;;;;6258525;23;20421;-76
2023/08/04 01:09:06;;;;;;;1.80;1.10;;;16.00;99.90;;;;;;6258549;23;20413;-77
2023/08/04 01:12:18;;;;;;;1.37;1.37;;;15.90;99.90;;;;;;6258776;23;20435;-77
2023/08/04 01:15:21;;;;;;;2.83;2.00;;;15.50;99.90;;;;;;6236700;23;20468;-78
2023/08/04 01:17:57;;;;;;;1.27;1.27;;;15.80;99.90;;;;;;6256956;23;20416;-77
2023/08/04 01:20:59;;;;;;;2.33;1.50;;;15.80;99.90;;;;;;6254402;23;20467;-78
2023/08/04 01:24:05;;;;;;;2.67;1.50;;;15.80;99.90;;;;;;6253484;23;20447;-79
2023/08/04 01:26:47;;;;;;;1.77;1.47;;;15.80;99.90;;;;;;6208708;23;20844;-79
2023/08/04 01:29:36;;;;;;;1.57;1.17;;;15.80;99.90;;;;;;6256627;23;20420;-78
2023/08/04 01:35:56;;;;;;;;;;;;;;;;;;;;;
2023/08/04 01:41:50;;;;;;;2.57;1.60;;;15.50;99.90;;;;;;6229816;23;20409;-79
2023/08/04 01:44:28;;;;;;;1.20;1.07;;;15.70;99.90;;;;;;6257837;23;20481;-78
2023/08/04 01:47:03;;;;;;;1.33;1.23;;;15.70;99.90;;;;;;6260896;23;20465;-78
2023/08/04 01:50:04;;;;;;;1.80;1.20;;;15.70;99.90;;;;;;6259616;23;20492;-79
2023/08/04 01:55:48;;;;;;;1.70;1.60;;;15.60;99.90;;;;;;6224129;23;20460;-78
2023/08/04 01:58:47;;;;;;;3.53;1.40;;;15.60;99.90;;;;;;6261725;23;20516;-77
2023/08/04 02:01:29;;;;;;;2.30;1.17;;;15.60;99.90;;;;;;6256489;23;20410;-78
2023/08/04 02:07:02;;;;;;;1.23;1.20;;;15.50;99.90;;;;;;6251739;23;20393;-79
2023/08/04 02:09:44;;;;;;;1.23;1.10;;;15.60;99.90;;;;;;6259150;23;20394;-78
2023/08/04 02:12:30;;;;;;;3.03;1.60;;;15.50;99.90;;;;;;6257974;23;20488;-76
2023/08/04 02:15:22;;;;;;;1.70;1.30;;;15.60;99.90;;;;;;6262913;23;20421;-76
2023/08/04 02:18:03;;;;;;;1.40;1.30;;;15.60;99.90;;;;;;6266432;23;20933;-80
2023/08/04 02:20:50;;;;;;;1.20;1.20;;;15.60;99.90;;;;;;6266059;23;20409;-79
2023/08/04 02:23:24;;;;;;;1.70;1.20;;;15.60;99.90;;;;;;6259619;23;20489;-78
2023/08/04 02:26:21;;;;;;;2.53;1.13;;;15.70;99.90;;;;;;6258179;23;20707;-79
2023/08/04 02:29:08;;;;;;;3.17;1.23;;;15.60;99.90;;;;;;6247115;23;20766;-80
2023/08/04 02:31:43;;;;;;;2.10;1.20;;;15.70;99.90;;;;;;6248330;23;20496;-80
2023/08/04 02:34:16;;;;;;;2.77;1.37;;;15.80;99.90;;;;;;6246965;23;20717;-80
2023/08/04 02:36:53;;;;;;;2.90;1.37;;;15.70;99.90;;;;;;6248863;23;20405;-79
2023/08/04 02:39:29;;;;;;;1.10;1.10;;;15.70;99.90;;;;;;6248931;23;20784;-77
2023/08/04 02:42:06;;;;;;;2.87;1.37;;;15.90;99.90;;;;;;6256087;23;20457;-79
2023/08/04 02:44:50;;;;;;;2.40;1.33;;;15.70;99.90;;;;;;6256314;23;20611;-78
2023/08/04 02:47:36;;;;;;;1.97;1.17;;;15.70;99.90;;;;;;6257775;23;20417;-78
2023/08/04 02:50:18;;;;;;;4.00;1.10;;;15.70;99.90;;;;;;6261569;23;20447;-79
2023/08/04 02:53:09;;;;;;;1.93;1.00;;;15.70;99.90;;;;;;6267611;23;20433;-78
2023/08/04 02:55:52;;;;;;;1.47;1.37;;;15.70;99.90;;;;;;6261802;23;20429;-77
2023/08/04 02:58:32;;;;;;;2.17;1.23;;;15.80;99.90;;;;;;6259249;23;20751;-78
2023/08/04 03:01:13;;;;;;;1.30;1.10;;;15.70;99.90;;;;;;6261999;23;20421;-78
2023/08/04 03:03:49;;;;;;;1.30;1.20;;;16.00;99.90;;;;;;6264234;23;20433;-78
2023/08/04 03:06:21;;;;;;;1.93;1.67;;;15.80;99.90;;;;;;6262165;23;20418;-78
2023/08/04 03:09:08;;;;;;;0.90;0.90;;;15.80;99.90;;;;;;6263722;23;20477;-78
2023/08/04 03:11:45;;;;;;;2.00;1.90;;;15.80;99.90;;;;;;6265242;23;20410;-78
2023/08/04 03:17:17;;;;;;;1.93;1.70;;;15.80;99.90;;;;;;6265732;23;20394;-79
2023/08/04 03:20:02;;;;;;;1.63;1.50;;;15.90;99.90;;;;;;6264596;23;20497;-78
2023/08/04 03:22:34;;;;;;;1.33;1.23;;;15.90;99.90;;;;;;6264331;23;20468;-78
2023/08/04 03:25:06;;;;;;;1.03;0.93;;;15.90;99.90;;;;;;6264238;23;20723;-78
2023/08/04 03:27:40;;;;;;;1.73;1.20;;;16.10;99.90;;;;;;6265600;23;20413;-79
2023/08/04 03:30:47;;;;;;;1.93;1.23;;;15.90;99.90;;;;;;6265651;23;20416;-78
2023/08/04 03:33:18;;;;;;;4.33;2.23;;;15.90;99.90;;;;;;6261877;23;20394;-78
2023/08/04 03:35:52;;;;;;;3.00;1.73;;;15.90;99.90;;;;;;6259409;23;20449;-78
2023/08/04 03:38:22;;;;;;;2.00;1.67;;;15.90;99.90;;;;;;6257900;23;20381;-78
2023/08/04 03:40:49;;;;;;;2.10;1.73;;;15.90;99.90;;;;;;6260951;23;20402;-78
2023/08/04 03:43:31;;;;;;;1.60;1.50;;;15.90;99.90;;;;;;6261206;23;20963;-79
2023/08/04 03:46:05;;;;;;;2.27;2.17;;;15.90;99.90;;;;;;6254201;23;20465;-77
2023/08/04 03:48:38;;;;;;;2.40;1.93;;;15.90;99.90;;;;;;6260549;23;20460;-77
2023/08/04 03:51:17;;;;;;;2.13;1.73;;;15.90;99.90;;;;;;6263835;23;20382;-78
2023/08/04 03:53:53;;;;;;;2.27;2.07;;;15.90;99.90;;;;;;6263037;23;20401;-77
2023/08/04 03:56:23;;;;;;;3.70;1.70;;;15.90;99.90;;;;;;6264811;23;20421;-81
2023/08/04 03:58:55;;;;;;;2.93;1.90;;;15.90;99.90;;;;;;6263955;23;20397;-78
2023/08/04 04:01:38;;;;;;;1.83;1.73;;;15.90;99.90;;;;;;6262716;23;20417;-77
2023/08/04 04:04:39;;;;;;;3.77;2.00;;;15.90;99.90;;;;;;6268340;23;20437;-78
2023/08/04 04:07:08;;;;;;;3.10;2.33;;;15.90;99.90;;;;;;6266839;23;20417;-78
2023/08/04 04:09:37;;;;;;;3.87;2.77;;;15.90;99.90;;;;;;6264350;23;20425;-79
2023/08/04 04:12:08;;;;;;;4.73;2.30;;;15.80;99.90;;;;;;6263096;23;20425;-79
2023/08/04 04:14:37;;;;;;;2.97;2.30;;;15.80;99.90;;;;;;6262706;23;20428;-78
2023/08/04 04:17:10;;;;;;;3.80;2.17;;;15.80;99.90;;;;;;6253875;23;20413;-79
2023/08/04 04:19:41;;;;;;;2.97;2.23;;;15.80;99.90;;;;;;6250470;23;20461;-78
2023/08/04 04:22:16;;;;;;;5.30;2.13;;;15.80;99.90;;;;;;6249810;23;20619;-81
2023/08/04 04:24:58;;;;;;;2.53;2.33;;;15.60;99.90;;;;;;6253967;23;20792;-78
2023/08/04 04:27:35;;;;;;;4.60;2.57;;;15.90;99.90;;;;;;6258245;23;20421;-79
2023/08/04 04:30:28;;;;;;;3.30;2.47;;;15.60;99.90;;;;;;6256245;23;20389;-80
2023/08/04 04:32:59;;;;;;;2.67;2.13;;;15.90;99.90;;;;;;6253295;23;20394;-78
2023/08/04 04:35:38;;;;;;;3.27;1.93;;;15.60;99.90;;;;;;6255215;23;20430;-78
2023/08/04 04:38:07;;;;;;;4.83;2.10;;;15.80;99.90;;;;;;6256457;23;20401;-79
2023/08/04 04:40:55;;;;;;;3.20;2.03;;;15.90;99.90;;;;;;6259033;23;20413;-79
2023/08/04 04:43:36;;;;;;;2.37;1.80;;;15.80;99.90;;;;;;6258575;23;20416;-78
2023/08/04 04:46:06;;;;;;;2.60;2.03;;;15.80;99.90;;;;;;6253546;23;20441;-79
2023/08/04 04:48:51;;;;;;;2.50;2.00;;;15.80;99.90;;;;;;6253684;23;20410;-79
2023/08/04 04:51:25;;;;;;;2.40;2.20;;;15.80;99.90;;;;;;6254935;23;20386;-79
2023/08/04 04:54:03;;;;;;;2.27;2.07;;;15.90;99.90;;;;;;6251956;23;20445;-78
2023/08/04 04:56:50;;;;;;;;;;;;;;;;;;;;;
2023/08/04 04:59:42;;;;;;;;;;;;;;;;;;;;;
2023/08/04 05:05:04;;;;;;;2.90;2.00;;;16.00;99.90;;;;;;6253466;23;20445;-79
2023/08/04 05:07:45;;;;;;;2.80;1.80;;;16.00;99.90;;;;;;6257307;23;20404;-78
2023/08/04 05:10:20;;;;;;;3.13;2.60;;;16.00;99.90;;;;;;6255448;23;20413;-78
2023/08/04 05:13:17;;;;;;;3.17;2.30;;;16.00;99.90;;;;;;6256907;23;20413;-80
2023/08/04 05:16:00;;;;;;;3.17;2.53;;;16.00;99.90;;;;;;6240630;23;20425;-79
2023/08/04 05:18:50;;;;;;;4.50;2.40;;;16.00;99.90;;;;;;6257775;23;20501;-78
2023/08/04 05:21:49;;;;;;;3.83;2.50;;;16.00;99.90;;;;;;6259386;23;20486;-80
2023/08/04 05:24:37;;;;;;;3.93;2.63;;;16.00;99.90;;;;;;6260673;23;20617;-79
2023/08/04 05:27:33;;;;;;;3.43;2.20;;;16.00;99.90;;;;;;6260846;23;20402;-79
2023/08/04 05:30:05;;;;;;;8.10;2.33;;;16.10;99.90;;;;;;6257373;23;20401;-79
2023/08/04 05:32:48;;;;;;;4.17;1.90;;;16.10;99.90;;;;;;6258441;23;20437;-80
2023/08/04 05:38:14;;;;;;;2.50;2.20;;;16.30;99.90;;;;;;6256177;23;20409;-78
2023/08/04 05:40:59;;;;;;;6.37;1.97;;;16.30;99.90;;;;;;6257984;23;20428;-78
2023/08/04 05:43:39;;;;;;;1.77;1.67;;;16.30;99.90;;;;;;6260768;23;20437;-79
2023/08/04 05:46:17;;;;;;;2.07;1.73;;;16.40;99.90;;;;;;6259563;23;20448;-79
2023/08/04 05:48:57;;;;;;;2.27;2.17;;;16.50;99.90;;;;;;6257561;23;20390;-78
2023/08/04 05:51:41;;;;;;;3.43;2.10;;;16.50;99.90;;;;;;6257615;23;20746;-80
2023/08/04 05:54:13;;;;;;;1.87;1.70;;;16.60;99.90;;;;;;6255404;23;20851;-78
2023/08/04 05:57:02;;;;;;;2.17;2.00;;;16.50;99.90;;;;;;6256169;23;20453;-79
2023/08/04 05:59:33;;;;;;;2.73;1.67;;;16.50;99.90;;;;;;6256077;23;20489;-80
2023/08/04 06:02:15;;;;;;;2.87;2.00;;;16.60;99.90;;;;;;6257851;23;20409;-80
2023/08/04 06:05:07;;;;;;;1.73;1.60;;;16.70;99.90;;;;;;6249419;23;20441;-79
2023/08/04 06:07:49;;;;;;;2.63;2.07;;;16.70;99.90;;;;;;6248484;23;20500;-77
2023/08/04 06:10:25;;;;;;;4.50;1.90;;;16.80;99.90;;;;;;6248383;23;20417;-78
2023/08/04 06:12:59;;;;;;;3.80;1.60;;;16.80;99.90;;;;;;6256691;23;20891;-79
2023/08/04 06:15:28;;;;;;;3.23;1.70;;;16.90;99.90;;;;;;6255784;23;20492;-77
2023/08/04 06:20:47;;;;;;;5.27;1.80;;;17.00;99.90;;;;;;6247185;23;20488;-79
2023/08/04 06:23:16;;;;;;;3.27;1.80;;;16.90;99.90;;;;;;6250504;23;20405;-78
2023/08/04 06:25:48;;;;;;;3.47;2.07;;;16.90;99.90;;;;;;6252517;23;20453;-79
2023/08/04 06:28:30;;;;;;;2.57;1.90;;;17.10;99.90;;;;;;6252267;23;20441;-81
2023/08/04 06:31:08;;;;;;;1.70;1.60;;;17.20;99.90;;;;;;6249362;23;20412;-77
2023/08/04 06:33:47;;;;;;;5.67;1.80;;;17.30;99.90;;;;;;6246381;23;20886;-78
2023/08/04 06:36:19;;;;;;;4.20;2.80;;;17.30;99.90;;;;;;6245803;23;20949;-78
2023/08/04 06:38:52;;;;;;;2.87;1.77;;;17.60;99.90;;;;;;6245452;23;20436;-79
2023/08/04 06:41:29;;;;;;;3.30;2.00;;;17.10;99.90;;;;;;6257885;23;20409;-78
2023/08/04 06:44:01;;;;;;;2.40;2.00;;;17.10;99.90;;;;;;6267110;23;20396;-78
2023/08/04 06:46:35;;;;;;;3.10;2.40;;;17.20;99.90;;;;;;6268028;23;20475;-78
2023/08/04 06:49:09;;;;;;;3.57;2.13;;;17.40;99.90;;;;;;6265912;23;20406;-79
2023/08/04 06:51:44;;;;;;;2.90;2.10;;;17.50;99.90;;;;;;6267524;23;20415;-79
2023/08/04 06:54:21;;;;;;;2.37;1.70;;;17.60;99.90;;;;;;6261105;23;20397;-79
2023/08/04 06:56:53;;;;;;;1.73;1.63;;;17.80;99.90;;;;;;6253531;23;20465;-78
2023/08/04 06:59:24;;;;;;;2.57;1.90;;;17.80;99.90;;;;;;6249000;23;20432;-79
2023/08/04 07:01:54;;;;;;;4.03;1.93;;;18.00;99.90;;;;;;6249630;23;20406;-79
2023/08/04 07:04:33;;;;;;;1.40;1.30;;;18.00;99.90;;;;;;6255272;23;20409;-79
2023/08/04 07:07:05;;;;;;;1.87;1.60;;;18.10;99.90;;;;;;6262411;23;20424;-79
2023/08/04 07:13:02;;;;;;;4.07;1.90;;;18.20;99.90;;;;;;6211064;23;20420;-78
2023/08/04 07:15:32;;;;;;;1.97;1.67;;;18.40;99.90;;;;;;6248359;23;20433;-77
2023/08/04 07:18:03;;;;;;;2.33;1.67;;;18.60;99.90;;;;;;6258545;23;20473;-78
2023/08/04 07:20:34;;;;;;;4.83;1.77;;;18.70;99.90;;;;;;6268404;23;20432;-79
2023/08/04 07:23:08;;;;;;;5.43;1.83;;;18.90;99.90;;;;;;6272335;22;20417;-78
2023/08/04 07:25:46;;;;;;;3.80;1.70;;;19.10;99.90;;;;;;6272374;23;20417;-80
2023/08/04 07:28:19;;;;;;;2.93;1.50;;;19.10;99.90;;;;;;6266775;23;20425;-78
2023/08/04 07:30:54;;;;;;;2.03;1.77;;;19.20;99.90;;;;;;6261866;23;20405;-78
2023/08/04 07:36:17;;;;;;;3.00;2.07;;;19.20;99.90;;;;;;6248194;23;20426;-79
2023/08/04 07:38:56;;;;;;;3.97;1.87;;;19.10;99.90;;;;;;6258192;22;20420;-78
2023/08/04 07:44:58;;;;;;;2.13;1.70;;;19.50;99.90;;;;;;6175802;23;20436;-76
2023/08/04 07:47:40;;;;;;;2.00;1.87;;;19.10;99.90;;;;;;6269102;23;20409;-77
2023/08/04 07:50:18;;;;;;;2.23;1.70;;;19.40;99.90;;;;;;6270496;23;20394;-77
2023/08/04 07:52:46;;;;;;;3.43;1.97;;;19.50;99.90;;;;;;6270489;23;20416;-77
2023/08/04 07:55:17;;;;;;;2.47;2.00;;;19.60;99.90;;;;;;6270049;23;20437;-79
2023/08/04 07:57:54;;;;;;;1.77;1.60;;;19.60;99.90;;;;;;6268277;23;20405;-77
2023/08/04 08:00:24;;;;;;;3.90;1.90;;;19.80;99.90;;;;;;6267663;23;20412;-77
2023/08/04 08:02:54;;;;;;;1.97;1.60;;;20.10;99.90;;;;;;6268132;23;20476;-78
2023/08/04 08:05:25;;;;;;;3.03;1.50;;;20.30;99.90;;;;;;6267514;23;20437;-79
2023/08/04 08:07:55;;;;;;;1.90;1.03;;;20.60;99.90;;;;;;6268812;22;20409;-77
2023/08/04 08:13:39;;;;;;;2.17;1.40;;;21.00;99.90;;;;;;6247277;23;20394;-78
2023/08/04 08:16:58;;;;;;;;;;;;;;;;;;;;;
2023/08/04 08:32:59;;;;;;;4.33;2.80;;;20.30;99.90;;;;;;6056014;23;20439;-78
2023/08/04 08:35:27;;;;;;;2.97;1.50;;;20.50;99.90;;;;;;6069404;23;20433;-78
2023/08/04 08:37:54;;;;;;;3.17;1.70;;;20.50;99.90;;;;;;6187746;23;20766;-78
2023/08/04 08:40:33;;;;;;;5.43;1.70;;;20.50;99.90;;;;;;6249356;23;20730;-79
2023/08/04 08:43:01;;;;;;;2.53;1.50;;;20.60;99.90;;;;;;6250290;23;20436;-80
2023/08/04 08:45:31;;;;;;;1.60;1.30;;;20.60;99.90;;;;;;6249743;23;20509;-78
2023/08/04 08:48:03;;;;;;;2.70;1.80;;;20.80;99.90;;;;;;6253595;23;20402;-78
2023/08/04 08:50:40;;;;;;;3.10;1.53;;;20.50;99.90;;;;;;6254035;23;20429;-78
2023/08/04 08:53:13;;;;;;;2.00;1.57;;;20.60;99.90;;;;;;6256661;23;20445;-78
2023/08/04 08:55:42;;;;;;;1.83;1.30;;;20.80;99.90;;;;;;6254537;23;20512;-78
2023/08/04 08:58:13;;;;;;;6.70;1.73;;;21.20;99.90;;;;;;6253682;23;20416;-78
2023/08/04 09:00:44;;;;;;;2.43;1.37;;;21.30;99.90;;;;;;6252761;23;20390;-78
2023/08/04 09:03:17;;;;;;;1.20;1.13;;;21.50;99.90;;;;;;6256086;23;20389;-81
2023/08/04 09:05:45;;;;;;;2.60;1.17;;;21.60;99.90;;;;;;6257375;23;20445;-78
2023/08/04 09:08:16;;;;;;;4.63;1.63;;;22.10;99.90;;;;;;6259932;23;20421;-78
2023/08/04 09:10:47;;;;;;;1.70;1.27;;;22.40;99.90;;;;;;6259155;23;20409;-79
2023/08/04 09:13:22;;;;;;;5.47;1.80;;;22.70;99.90;;;;;;6256512;23;20406;-78
2023/08/04 09:15:53;;;;;;;3.73;1.70;;;22.70;99.90;;;;;;6260502;23;20769;-77
2023/08/04 09:18:42;;;;;;;2.20;1.53;;;21.90;99.90;;;;;;6260360;23;20410;-79
2023/08/04 09:21:14;;;;;;;1.27;1.10;;;22.00;99.90;;;;;;6262607;23;20413;-79
2023/08/04 09:23:47;;;;;;;2.90;1.60;;;22.50;99.90;;;;;;6262959;23;20409;-79
2023/08/04 09:26:15;;;;;;;1.67;1.23;;;22.30;99.90;;;;;;6262815;23;20441;-78
2023/08/04 09:28:43;;;;;;;1.87;1.30;;;22.20;99.90;;;;;;6261162;23;20480;-80
2023/08/04 09:31:18;;;;;;;2.00;1.70;;;22.20;99.90;;;;;;6260062;23;20426;-79
2023/08/04 09:33:47;;;;;;;2.63;1.40;;;22.30;99.90;;;;;;6260787;23;20413;-79
2023/08/04 09:36:16;;;;;;;2.57;1.70;;;22.10;99.90;;;;;;6261325;23;20425;-80
2023/08/04 09:38:48;;;;;;;2.13;1.27;;;22.00;99.90;;;;;;6260961;23;20440;-78
2023/08/04 09:41:23;;;;;;;1.30;1.20;;;22.20;99.90;;;;;;6257758;23;20401;-78
2023/08/04 09:43:52;;;;;;;1.40;1.20;;;21.80;99.90;;;;;;6256113;23;20392;-78
2023/08/04 09:46:25;;;;;;;2.17;1.53;;;21.90;99.90;;;;;;6251764;23;20472;-79
2023/08/04 09:48:59;;;;;;;2.20;1.33;;;21.90;99.90;;;;;;6248682;23;20400;-78
2023/08/04 09:51:30;;;;;;;1.73;1.50;;;22.20;99.90;;;;;;6247237;23;20405;-78
2023/08/04 09:53:58;;;;;;;2.57;1.20;;;22.00;99.90;;;;;;6246578;23;20417;-79
2023/08/04 09:56:31;;;;;;;2.83;1.63;;;21.90;99.90;;;;;;6247589;23;20425;-77
2023/08/04 09:59:03;;;;;;;1.67;1.20;;;22.00;99.90;;;;;;6250367;23;20409;-79
2023/08/04 10:01:34;;;;;;;1.73;1.63;;;21.50;99.90;;;;;;6247213;23;20381;-78
2023/08/04 10:04:15;;;;;;;1.67;1.57;;;21.50;99.90;;;;;;6247693;23;20409;-78
2023/08/04 10:07:01;;;;;;;2.10;1.30;;;21.40;99.90;;;;;;6246596;23;20464;-79
2023/08/04 10:10:00;;;;;;;1.60;1.50;;;21.70;99.90;;;;;;6248544;23;20415;-79
2023/08/04 10:12:42;;;;;;;2.77;1.50;;;21.80;99.90;;;;;;6246597;23;20413;-77
2023/08/04 10:15:22;;;;;;;1.27;1.17;;;21.90;99.90;;;;;;6245948;23;20437;-79
2023/08/04 10:18:00;;;;;;;1.70;1.20;;;21.70;99.90;;;;;;6244890;23;20468;-77
2023/08/04 10:20:37;;;;;;;2.50;1.40;;;21.80;99.90;;;;;;6245185;23;20408;-78
2023/08/04 10:23:06;;;;;;;1.17;1.10;;;21.40;99.90;;;;;;6246941;23;20404;-82
2023/08/04 10:25:33;;;;;;;1.47;1.30;;;21.70;99.90;;;;;;6249003;23;20437;-80
2023/08/04 10:28:10;;;;;;;1.13;1.00;;;21.60;99.90;;;;;;6250514;23;20452;-79
2023/08/04 10:30:46;;;;;;;1.63;1.30;;;21.30;99.90;;;;;;6248481;23;20425;-78
2023/08/04 10:33:24;;;;;;;1.47;1.17;;;21.10;99.90;;;;;;6247489;23;20420;-77
2023/08/04 10:36:12;;;;;;;3.03;1.50;;;20.90;99.90;;;;;;6247807;23;20429;-78
2023/08/04 10:38:49;;;;;;;1.17;1.07;;;20.20;99.90;;;;;;6247979;23;20757;-79
2023/08/04 10:41:17;;;;;;;1.47;1.30;;;20.50;99.90;;;;;;6248538;23;20393;-80
2023/08/04 10:44:13;;;;;;;1.67;1.23;;;20.60;99.90;;;;;;6248192;23;20389;-78
2023/08/04 10:46:42;;;;;;;2.20;1.10;;;20.50;99.90;;;;;;6247607;23;20441;-77
2023/08/04 10:49:13;;;;;;;1.50;1.10;;;20.60;99.90;;;;;;6248383;23;20394;-78
2023/08/04 10:51:46;;;;;;;1.50;1.40;;;20.80;99.90;;;;;;6248947;23;20417;-77
2023/08/04 10:54:21;;;;;;;1.40;1.30;;;20.60;99.90;;;;;;6250016;23;20856;-80
2023/08/04 10:57:03;;;;;;;1.20;0.90;;;20.80;99.90;;;;;;6249421;23;20861;-79
2023/08/04 10:59:31;;;;;;;1.40;1.10;;;20.90;99.90;;;;;;6249332;23;20856;-78
2023/08/04 11:04:50;;;;;;;3.90;1.40;;;20.80;99.90;;;;;;6249688;23;20433;-79
2023/08/04 11:07:24;;;;;;;1.20;1.10;;;20.80;99.90;;;;;;6251357;23;20957;-79
2023/08/04 11:09:58;;;;;;;3.37;1.50;;;20.90;99.90;;;;;;6253065;23;20413;-77
2023/08/04 11:12:32;;;;;;;3.80;1.63;;;20.90;99.90;;;;;;6250092;23;20448;-80
2023/08/04 11:15:06;;;;;;;1.30;1.20;;;20.80;99.90;;;;;;6248022;23;20430;-78
2023/08/04 11:17:48;;;;;;;2.20;1.40;;;20.40;99.90;;;;;;6248859;23;20874;-79
2023/08/04 11:20:22;;;;;;;1.60;1.23;;;20.70;99.90;;;;;;6247902;23;20467;-78
2023/08/04 11:23:00;;;;;;;4.40;1.90;;;20.80;99.90;;;;;;6249166;23;20397;-78
2023/08/04 11:25:39;;;;;;;2.03;1.70;;;20.40;99.90;;;;;;6249823;23;20433;-79
2023/08/04 11:28:19;;;;;;;1.90;1.57;;;20.20;99.90;;;;;;6250584;23;20437;-78
2023/08/04 11:30:47;;;;;;;2.47;1.60;;;20.20;99.90;;;;;;6250523;23;20417;-77
2023/08/04 11:33:17;;;;;;;1.40;1.30;;;20.40;99.90;;;;;;6249342;23;20406;-77
2023/08/04 11:35:48;;;;;;;2.90;1.20;;;20.30;99.90;;;;;;6248450;23;20409;-78
2023/08/04 11:38:20;;;;;;;1.70;1.30;;;20.30;99.90;;;;;;6248662;23;20413;-82
2023/08/04 11:41:02;;;;;;;1.57;1.30;;;20.40;99.90;;;;;;6249888;23;20398;-79
2023/08/04 11:43:33;;;;;;;2.70;1.40;;;20.50;99.90;;;;;;6252753;23;20374;-79
2023/08/04 11:46:03;;;;;;;2.53;1.40;;;20.30;99.90;;;;;;6251765;23;20427;-78
2023/08/04 11:48:34;;;;;;;3.73;1.73;;;20.30;99.90;;;;;;6253242;23;20405;-79
2023/08/04 11:51:03;;;;;;;2.00;1.30;;;20.50;99.90;;;;;;6252295;23;20401;-79
2023/08/04 11:53:32;;;;;;;1.47;1.37;;;20.30;99.90;;;;;;6251774;23;20413;-80
2023/08/04 11:56:03;;;;;;;1.40;1.30;;;20.30;99.90;;;;;;6253251;23;20440;-78
2023/08/04 11:58:36;;;;;;;1.50;1.40;;;20.30;99.90;;;;;;6251960;23;20435;-79
2023/08/04 12:01:14;;;;;;;1.30;1.20;;;20.10;99.90;;;;;;6251699;23;20451;-79
2023/08/04 12:03:52;;;;;;;1.77;1.33;;;20.30;99.90;;;;;;6249207;23;20409;-78
2023/08/04 12:09:47;;;;;;;1.27;1.17;;;19.90;99.90;;;;;;6244101;23;20413;-79
2023/08/04 12:12:41;;;;;;;1.63;1.00;;;20.00;99.90;;;;;;6238810;23;20416;-80
2023/08/04 12:15:11;;;;;;;3.50;1.30;;;20.10;99.90;;;;;;6251392;23;20521;-81
2023/08/04 12:17:42;;;;;;;1.53;1.37;;;20.00;99.90;;;;;;6251451;23;20429;-80
2023/08/04 12:23:18;;;;;;;1.70;1.13;;;19.70;99.90;;;;;;6247431;23;20410;-80
2023/08/04 12:28:56;;;;;;;1.20;1.03;;;19.60;99.90;;;;;;6195174;23;20447;-79
2023/08/04 12:31:35;;;;;;;0.90;0.83;;;19.70;99.90;;;;;;6252164;23;20397;-78
2023/08/04 12:34:13;;;;;;;1.60;1.10;;;19.80;99.90;;;;;;6250382;23;20495;-79
2023/08/04 12:36:58;;;;;;;2.20;1.00;;;20.00;99.90;;;;;;6252291;23;20758;-79
2023/08/04 12:39:41;;;;;;;1.20;1.10;;;20.30;99.90;;;;;;6249812;23;20409;-79
2023/08/04 12:42:18;;;;;;;2.33;1.00;;;20.30;99.90;;;;;;6242672;23;20459;-81
2023/08/04 12:44:52;;;;;;;0.90;0.90;;;20.40;99.90;;;;;;6248377;23;20436;-79
2023/08/04 12:47:20;;;;;;;1.00;0.90;;;20.40;99.90;;;;;;6249716;23;20436;-80
2023/08/04 12:49:49;;;;;;;2.07;1.10;;;20.50;99.90;;;;;;6251063;23;20473;-80
2023/08/04 12:52:30;;;;;;;1.30;1.10;;;20.50;99.90;;;;;;6253376;23;20413;-78
2023/08/04 12:55:02;;;;;;;1.33;1.10;;;20.30;99.90;;;;;;6253475;23;20508;-79
2023/08/04 12:57:36;;;;;;;1.60;1.33;;;20.20;99.90;;;;;;6254327;23;20429;-79
2023/08/04 13:00:10;;;;;;;1.57;1.33;;;20.20;99.90;;;;;;6254029;23;20405;-79
2023/08/04 13:02:43;;;;;;;1.70;1.00;;;20.50;99.90;;;;;;6253391;23;20405;-80
2023/08/04 13:05:21;;;;;;;1.33;1.07;;;20.90;99.90;;;;;;6252374;23;20483;-79
2023/08/04 13:07:57;;;;;;;0.93;0.90;;;21.30;99.90;;;;;;6253736;23;20930;-79
2023/08/04 13:10:35;;;;;;;1.43;1.30;;;21.00;99.90;;;;;;6256183;23;20417;-79
2023/08/04 13:13:05;;;;;;;1.00;1.00;;;21.30;99.90;;;;;;6255076;23;20413;-78
2023/08/04 13:15:33;;;;;;;1.57;0.90;;;21.50;99.90;;;;;;6256234;23;20433;-77
2023/08/04 13:18:06;;;;;;;0.80;0.80;;;22.10;99.90;;;;;;6258882;23;20405;-79
2023/08/04 13:20:43;;;;;;;0.70;0.70;;;22.10;99.90;;;;;;6256492;23;20371;-78
2023/08/04 13:23:11;;;;;;;0.83;0.83;;;21.50;99.90;;;;;;6253020;23;20500;-79
2023/08/04 13:25:40;;;;;;;1.47;1.20;;;21.40;99.90;;;;;;6250312;23;20453;-78
2023/08/04 13:28:18;;;;;;;1.30;1.20;;;21.30;99.90;;;;;;6251114;23;20453;-79
2023/08/04 13:30:50;;;;;;;0.90;0.90;;;21.40;99.90;;;;;;6253559;23;20429;-78
2023/08/04 13:36:39;;;;;;;1.30;1.20;;;21.50;99.90;;;;;;4998648;27;2808959;-78
2023/08/04 13:39:28;;;;;;;1.60;1.50;;;21.40;99.90;;;;;;5075530;28;20663;-80
2023/08/04 13:42:03;;;;;;;1.60;1.20;;;21.60;99.90;;;;;;5076332;28;20406;-80
2023/08/04 13:44:38;;;;;;;1.43;1.03;;;22.00;99.90;;;;;;5076182;28;20432;-78
2023/08/04 13:47:31;;;;;;;2.60;1.20;;;22.70;99.90;;;;;;5076620;28;20455;-78
2023/08/04 13:50:11;;;;;;;1.53;1.50;;;23.10;99.90;;;;;;5074927;28;20449;-79
2023/08/04 13:53:01;;;;;;;2.20;2.10;;;22.50;99.90;;;;;;5075516;28;20498;-79
2023/08/04 14:01:34;;;;;;;2.60;2.40;;;21.70;99.90;;;;;;5073819;28;20445;-79
2023/08/04 14:04:07;;;;;;;2.70;2.50;;;21.10;99.90;;;;;;5082961;28;20448;-78
2023/08/04 14:06:41;;;;;;;2.17;2.07;;;21.30;99.90;;;;;;5087659;28;20484;-79
2023/08/04 14:09:13;;;;;;;2.33;2.23;;;21.50;99.90;;;;;;5092203;28;20495;-80
2023/08/04 14:11:44;;;;;;;2.33;2.23;;;21.10;99.90;;;;;;5092675;28;20469;-77
2023/08/04 14:14:27;;;;;;;;;;;;;;;;;;;;;
2023/08/04 14:17:25;;;;;;;2.93;2.27;;;21.70;99.90;;;;;;5084481;28;20445;-78
2023/08/04 14:20:16;;;;;;;2.20;2.10;;;21.50;99.90;;;;;;5083066;28;20444;-77
2023/08/04 14:25:49;;;;;;;2.40;2.20;;;21.00;99.90;;;;;;5101333;28;20824;-79
2023/08/04 14:28:18;;;;;;;2.73;2.60;;;20.70;99.90;;;;;;5096955;28;20462;-77
2023/08/04 14:30:47;;;;;;;2.20;2.10;;;20.90;99.90;;;;;;5095216;28;20455;-77
2023/08/04 14:33:22;;;;;;;1.83;1.73;;;21.00;99.90;;;;;;5096145;28;20512;-76
2023/08/04 14:35:52;;;;;;;2.20;2.00;;;21.20;99.90;;;;;;5096066;28;21024;-78
2023/08/04 14:38:20;;;;;;;2.00;1.90;;;21.30;99.90;;;;;;5098317;28;20474;-77
2023/08/04 14:40:56;;;;;;;2.17;2.07;;;20.90;99.90;;;;;;5096506;28;20455;-77
2023/08/04 14:43:40;;;;;;;2.17;2.07;;;20.50;99.90;;;;;;5097631;28;20454;-76
2023/08/04 14:46:16;;;;;;;2.47;2.37;;;20.40;99.90;;;;;;5091518;28;20465;-77
2023/08/04 14:48:57;;;;;;;2.00;1.90;;;20.90;99.90;;;;;;5081941;28;20460;-78
2023/08/04 14:51:34;;;;;;;2.10;2.00;;;20.80;99.90;;;;;;5080848;28;20855;-79
2023/08/04 14:54:13;;;;;;;2.07;1.90;;;20.90;99.90;;;;;;5079417;28;20452;-79
2023/08/04 14:56:50;;;;;;;2.23;2.13;;;20.80;99.90;;;;;;5079528;28;20480;-82
2023/08/04 14:59:21;;;;;;;2.27;2.13;;;20.60;99.90;;;;;;5079348;28;20531;-80
2023/08/04 15:01:51;;;;;;;2.60;2.37;;;20.40;99.90;;;;;;5078089;28;20502;-78
2023/08/04 15:04:29;;;;;;;2.93;1.90;;;20.40;99.90;;;;;;5077266;28;20452;-80
2023/08/04 15:07:00;;;;;;;2.40;2.30;;;20.10;99.90;;;;;;5077497;28;20790;-81